Time;durP1;ratioP1;P1;durP2;ratioP2;P2;SDS_P1;SDS_P2;PMS_P1;PMS_P2;Temp;Humidity;BMP_temperature;BMP_pressure;BME280_temperature;BME280_humidity;BME280_pressure;Samples;Min_cycle;Max_cycle;Signal;HPM_P1;HPM_P2
2022/09/15 00:00:25;;;;;;;4.97;2.60;;;;;;;17.76;100.00;95323.28;5036328;28;20201;-73
2022/09/15 00:02:51;;;;;;;5.13;2.40;;;;;;;17.71;100.00;95320.53;5035307;28;20681;-73
2022/09/15 00:05:19;;;;;;;7.03;2.30;;;;;;;17.78;100.00;95315.84;5036121;28;20197;-73
2022/09/15 00:07:46;;;;;;;8.30;2.50;;;;;;;17.83;100.00;95302.59;5036587;28;20610;-73
2022/09/15 00:10:12;;;;;;;7.32;1.98;;;;;;;17.95;100.00;95303.31;5036052;28;20228;-72
2022/09/15 00:12:39;;;;;;;6.35;2.17;;;;;;;17.93;100.00;95303.53;5035904;28;20253;-73
2022/09/15 00:15:06;;;;;;;6.68;2.25;;;;;;;18.06;100.00;95295.22;5036203;28;20204;-73
2022/09/15 00:17:33;;;;;;;6.63;1.70;;;;;;;18.02;100.00;95293.28;5036251;28;20408;-72
2022/09/15 00:19:59;;;;;;;4.10;2.03;;;;;;;18.03;100.00;95293.03;5036180;28;20200;-73
2022/09/15 00:22:28;;;;;;;3.63;1.80;;;;;;;18.14;100.00;95283.31;5034943;28;20208;-72
2022/09/15 00:24:54;;;;;;;6.25;1.90;;;;;;;18.09;100.00;95291.28;5036067;28;20212;-73
2022/09/15 00:27:20;;;;;;;3.83;2.03;;;;;;;18.04;100.00;95300.00;5036377;28;21390;-72
2022/09/15 00:29:47;;;;;;;2.55;1.33;;;;;;;18.09;100.00;95294.72;5035701;28;20232;-73
2022/09/15 00:32:13;;;;;;;4.15;1.73;;;;;;;18.08;100.00;95301.09;5035799;28;20216;-72
2022/09/15 00:34:40;;;;;;;4.60;1.88;;;;;;;18.11;100.00;95305.16;5038318;28;20685;-72
2022/09/15 00:37:07;;;;;;;3.25;1.90;;;;;;;18.15;100.00;95300.94;5039907;28;20562;-73
2022/09/15 00:39:35;;;;;;;4.45;1.83;;;;;;;18.24;100.00;95307.50;5040003;28;20770;-73
2022/09/15 00:42:03;;;;;;;9.95;3.05;;;;;;;18.26;100.00;95310.72;5040796;28;20278;-73
2022/09/15 00:44:52;;;;;;;2.70;1.83;;;;;;;18.40;100.00;95307.44;5039265;28;20201;-73
2022/09/15 00:47:20;;;;;;;6.10;1.80;;;;;;;18.21;100.00;95306.13;5039923;28;20276;-73
2022/09/15 00:49:52;;;;;;;5.20;1.70;;;;;;;18.22;100.00;95307.75;5040084;28;20225;-72
2022/09/15 00:52:23;;;;;;;5.63;1.83;;;;;;;18.22;100.00;95322.94;5040392;28;20205;-72
2022/09/15 00:55:04;;;;;;;4.10;1.50;;;;;;;18.25;100.00;95319.78;5040111;28;21096;-72
2022/09/15 00:57:35;;;;;;;6.00;1.50;;;;;;;18.33;100.00;95319.34;5039722;28;20216;-72
2022/09/15 01:00:05;;;;;;;4.55;1.80;;;;;;;18.22;100.00;95315.75;5040193;28;20197;-73
2022/09/15 01:02:34;;;;;;;5.68;1.48;;;;;;;18.18;100.00;95316.50;5038456;28;20201;-73
2022/09/15 01:05:02;;;;;;;3.63;1.77;;;;;;;18.15;100.00;95322.25;5039703;28;20228;-73
2022/09/15 01:07:35;;;;;;;4.28;1.98;;;;;;;18.32;100.00;95315.06;5039526;28;20730;-73
2022/09/15 01:10:11;;;;;;;3.17;1.50;;;;;;;18.27;100.00;95310.47;5039693;28;20221;-72
2022/09/15 01:12:40;;;;;;;4.97;1.60;;;;;;;18.29;100.00;95312.91;5038531;28;20232;-73
2022/09/15 01:15:07;;;;;;;2.28;1.58;;;;;;;18.31;100.00;95321.47;5039931;28;20286;-73
2022/09/15 01:17:45;;;;;;;3.75;1.60;;;;;;;18.32;100.00;95317.72;5038869;28;20216;-73
2022/09/15 01:20:37;;;;;;;6.15;1.75;;;;;;;18.44;100.00;95314.72;5039696;28;20575;-73
2022/09/15 01:23:28;;;;;;;3.88;1.58;;;;;;;18.37;100.00;95316.75;5038606;28;20209;-73
2022/09/15 01:26:19;;;;;;;3.65;1.60;;;;;;;18.41;100.00;95314.41;5039155;28;20673;-73
2022/09/15 01:29:10;;;;;;;2.17;1.52;;;;;;;18.39;100.00;95314.66;5038893;28;20225;-72
2022/09/15 01:33:02;;;;;;;4.85;1.50;;;;;;;18.43;100.00;95312.28;5038904;28;20201;-72
2022/09/15 01:34:36;;;;;;;8.75;1.60;;;;;;;18.44;100.00;95311.22;5037951;28;20723;-73
2022/09/15 01:37:09;;;;;;;3.63;1.70;;;;;;;18.42;100.00;95308.81;5039219;28;20212;-72
2022/09/15 01:39:40;;;;;;;2.67;1.40;;;;;;;18.39;100.00;95308.50;5038290;28;20204;-73
2022/09/15 01:42:10;;;;;;;1.17;0.85;;;;;;;18.28;100.00;95306.75;5038747;28;20213;-73
2022/09/15 01:44:40;;;;;;;2.97;1.35;;;;;;;18.28;100.00;95305.94;5038317;28;20201;-72
2022/09/15 01:47:12;;;;;;;2.88;1.30;;;;;;;18.17;100.00;95293.50;5039152;28;20209;-73
2022/09/15 01:49:45;;;;;;;4.20;1.20;;;;;;;18.26;100.00;95284.06;5038896;28;20247;-73
2022/09/15 01:52:15;;;;;;;3.53;1.33;;;;;;;18.16;100.00;95286.56;5038757;28;20205;-72
2022/09/15 01:54:47;;;;;;;2.13;1.27;;;;;;;18.22;100.00;95285.63;5037941;28;20216;-72
2022/09/15 01:57:16;;;;;;;3.10;1.33;;;;;;;18.00;100.00;95284.75;5039246;28;20205;-73
2022/09/15 01:59:42;;;;;;;7.90;1.25;;;;;;;18.07;100.00;95293.34;5038299;28;20243;-72
2022/09/15 02:02:14;;;;;;;2.60;1.27;;;;;;;18.20;100.00;95285.88;5038561;28;20205;-73
2022/09/15 02:04:45;;;;;;;6.88;1.38;;;;;;;18.16;100.00;95281.22;5038552;28;20202;-72
2022/09/15 02:07:15;;;;;;;7.18;1.45;;;;;;;18.10;100.00;95282.19;5038667;28;20628;-72
2022/09/15 02:09:45;;;;;;;12.95;6.05;;;;;;;18.06;100.00;95284.56;5038128;28;20958;-73
2022/09/15 02:12:18;;;;;;;29.50;10.65;;;;;;;18.04;100.00;95269.88;5037750;28;20205;-72
2022/09/15 02:14:52;;;;;;;7.68;5.10;;;;;;;17.97;100.00;95286.03;5039036;28;20202;-73
2022/09/15 02:17:21;;;;;;;9.13;2.85;;;;;;;17.94;100.00;95283.03;5038418;28;20197;-73
2022/09/15 02:19:51;;;;;;;1.27;0.90;;;;;;;17.87;100.00;95288.56;5037791;28;20194;-73
2022/09/15 02:22:22;;;;;;;4.78;1.30;;;;;;;17.79;100.00;95293.47;5036377;28;20212;-73
2022/09/15 02:24:55;;;;;;;2.55;1.67;;;;;;;17.82;100.00;95282.34;5037866;28;20209;-72
2022/09/15 02:27:26;;;;;;;4.28;1.58;;;;;;;17.78;100.00;95281.19;5038129;28;20213;-72
2022/09/15 02:29:58;;;;;;;2.67;1.30;;;;;;;17.80;100.00;95287.09;5037521;28;20225;-72
2022/09/15 02:32:28;;;;;;;7.68;1.55;;;;;;;17.74;100.00;95283.56;5037668;28;20205;-73
2022/09/15 02:34:57;;;;;;;2.83;1.90;;;;;;;17.57;100.00;95284.59;5038087;28;20216;-73
2022/09/15 02:37:25;;;;;;;3.08;1.58;;;;;;;17.53;100.00;95285.34;5038325;28;20294;-73
2022/09/15 02:39:56;;;;;;;4.03;1.50;;;;;;;17.56;100.00;95288.31;5037612;28;20197;-73
2022/09/15 02:42:24;;;;;;;4.30;1.40;;;;;;;17.38;100.00;95293.88;5037610;28;20213;-73
2022/09/15 02:44:51;;;;;;;3.58;1.60;;;;;;;17.26;100.00;95289.66;5037701;28;20288;-72
2022/09/15 02:47:17;;;;;;;4.10;1.63;;;;;;;17.25;100.00;95286.19;5038558;28;20201;-73
2022/09/15 02:49:45;;;;;;;3.35;1.50;;;;;;;17.37;100.00;95280.81;5037100;28;20324;-72
2022/09/15 02:52:12;;;;;;;9.02;1.65;;;;;;;17.21;100.00;95276.25;5037739;28;20201;-72
2022/09/15 02:54:38;;;;;;;2.40;1.42;;;;;;;17.34;100.00;95273.31;5037184;28;20576;-73
2022/09/15 02:57:05;;;;;;;2.92;1.48;;;;;;;17.24;100.00;95268.59;5037455;28;20212;-73
2022/09/15 03:00:11;;;;;;;5.05;1.80;;;;;;;17.24;100.00;95265.94;5036992;28;20292;-72
2022/09/15 03:02:19;;;;;;;2.60;1.80;;;;;;;17.39;100.00;95266.19;5037413;28;20197;-72
2022/09/15 03:04:47;;;;;;;5.05;1.88;;;;;;;17.43;100.00;95262.00;5037350;28;20193;-72
2022/09/15 03:07:14;;;;;;;3.53;1.75;;;;;;;17.15;100.00;95259.38;5037682;28;20197;-73
2022/09/15 03:09:41;;;;;;;3.97;2.17;;;;;;;17.36;100.00;95268.53;5037172;28;20232;-72
2022/09/15 03:12:08;;;;;;;3.42;1.92;;;;;;;17.29;100.00;95279.34;5037403;28;20621;-73
2022/09/15 03:14:34;;;;;;;5.80;1.85;;;;;;;17.23;100.00;95274.97;5036270;28;20216;-73
2022/09/15 03:17:01;;;;;;;4.85;1.67;;;;;;;17.23;100.00;95280.28;5037899;28;20205;-73
2022/09/15 03:19:27;;;;;;;2.70;1.60;;;;;;;17.17;100.00;95275.91;5037490;28;20209;-73
2022/09/15 03:21:55;;;;;;;7.57;1.83;;;;;;;17.27;100.00;95281.44;5037365;28;20205;-73
2022/09/15 03:24:22;;;;;;;4.65;1.70;;;;;;;17.10;100.00;95285.09;5036105;28;21166;-73
2022/09/15 03:26:49;;;;;;;7.80;1.70;;;;;;;17.15;100.00;95282.53;5037431;28;20201;-72
2022/09/15 03:29:16;;;;;;;2.65;1.55;;;;;;;17.16;100.00;95287.59;5037059;28;20279;-73
2022/09/15 03:31:42;;;;;;;4.30;1.70;;;;;;;17.14;100.00;95287.06;5036352;28;20217;-73
2022/09/15 03:34:09;;;;;;;4.40;1.65;;;;;;;17.16;100.00;95284.94;5036518;28;20259;-72
2022/09/15 03:36:35;;;;;;;3.38;1.85;;;;;;;17.24;100.00;95281.91;5036682;28;20204;-73
2022/09/15 03:39:04;;;;;;;5.60;1.42;;;;;;;17.34;100.00;95281.28;5036733;28;20247;-73
2022/09/15 03:41:30;;;;;;;4.10;1.75;;;;;;;17.25;100.00;95277.41;5036211;28;20658;-73
2022/09/15 03:43:57;;;;;;;3.90;2.00;;;;;;;17.20;100.00;95277.28;5036462;28;20197;-72
2022/09/15 03:46:23;;;;;;;2.58;1.40;;;;;;;17.29;100.00;95284.66;5037051;28;20197;-73
2022/09/15 03:48:49;;;;;;;5.20;1.60;;;;;;;17.30;100.00;95269.50;5036825;28;20232;-72
2022/09/15 03:51:16;;;;;;;3.78;1.38;;;;;;;17.37;100.00;95276.28;5036624;28;20312;-72
2022/09/15 03:53:42;;;;;;;2.40;1.30;;;;;;;17.41;100.00;95272.09;5035887;28;20662;-72
2022/09/15 03:56:18;;;;;;;2.38;1.50;;;;;;;17.46;100.00;95264.16;5036667;28;20205;-73
2022/09/15 03:58:44;;;;;;;2.15;1.45;;;;;;;17.49;100.00;95273.53;5036712;28;20229;-72
2022/09/15 04:01:11;;;;;;;4.45;1.60;;;;;;;17.40;100.00;95280.31;5036260;28;20267;-72
2022/09/15 04:03:37;;;;;;;8.70;3.35;;;;;;;17.42;100.00;95279.03;5035657;28;20204;-73
2022/09/15 04:06:04;;;;;;;4.53;1.40;;;;;;;17.47;100.00;95278.31;5036562;28;20205;-73
2022/09/15 04:08:30;;;;;;;1.85;1.00;;;;;;;17.47;100.00;95273.78;5035480;28;20225;-72
2022/09/15 04:10:59;;;;;;;2.72;1.50;;;;;;;17.54;100.00;95265.63;5036425;28;20759;-72
2022/09/15 04:13:26;;;;;;;2.78;1.33;;;;;;;17.65;100.00;95268.22;5035459;28;20287;-72
2022/09/15 04:16:00;;;;;;;2.55;1.27;;;;;;;17.73;100.00;95271.28;5036288;28;20212;-72
2022/09/15 04:18:27;;;;;;;7.63;1.45;;;;;;;17.60;100.00;95272.66;5036200;28;20331;-73
2022/09/15 04:20:53;;;;;;;2.25;1.20;;;;;;;17.67;100.00;95267.97;5036909;28;20204;-72
2022/09/15 04:23:20;;;;;;;3.45;0.88;;;;;;;17.64;100.00;95276.44;5035383;28;20201;-72
2022/09/15 04:25:54;;;;;;;1.85;1.15;;;;;;;17.76;100.00;95270.78;5035892;28;20300;-73
2022/09/15 04:28:21;;;;;;;0.98;0.70;;;;;;;17.69;100.00;95273.88;5036951;28;20768;-73
2022/09/15 04:30:48;;;;;;;5.53;1.20;;;;;;;17.71;100.00;95272.56;5036286;28;20217;-73
2022/09/15 04:33:15;;;;;;;5.25;1.20;;;;;;;17.69;100.00;95280.00;5034983;28;20336;-72
2022/09/15 04:35:41;;;;;;;4.95;1.48;;;;;;;17.66;100.00;95272.50;5036020;28;20216;-73
2022/09/15 04:38:08;;;;;;;1.58;1.02;;;;;;;17.70;100.00;95267.50;5037096;28;20304;-73
2022/09/15 04:40:35;;;;;;;4.80;1.20;;;;;;;17.66;100.00;95267.16;5035666;28;20205;-73
2022/09/15 04:43:02;;;;;;;2.33;1.15;;;;;;;17.71;100.00;95264.56;5035738;28;20276;-72
2022/09/15 04:45:28;;;;;;;3.50;1.42;;;;;;;17.77;100.00;95266.28;5036378;28;20251;-73
2022/09/15 04:47:56;;;;;;;2.47;1.30;;;;;;;17.81;100.00;95267.41;5035835;28;20225;-73
2022/09/15 04:50:22;;;;;;;1.08;0.90;;;;;;;17.57;100.00;95260.63;5035685;28;20282;-72
2022/09/15 04:52:49;;;;;;;3.83;1.08;;;;;;;17.65;100.00;95265.53;5035808;28;20218;-73
2022/09/15 04:55:16;;;;;;;1.67;1.02;;;;;;;17.71;100.00;95266.44;5035773;28;20994;-73
2022/09/15 04:57:43;;;;;;;2.88;1.20;;;;;;;17.69;100.00;95258.66;5035107;28;20221;-72
2022/09/15 05:00:10;;;;;;;1.92;1.20;;;;;;;17.76;100.00;95262.00;5036722;28;20197;-73
2022/09/15 05:02:37;;;;;;;3.03;1.20;;;;;;;17.70;100.00;95259.50;5035174;28;20708;-73
2022/09/15 05:05:06;;;;;;;1.90;1.20;;;;;;;17.79;100.00;95264.16;5035394;28;20201;-72
2022/09/15 05:07:32;;;;;;;2.08;1.23;;;;;;;17.72;100.00;95255.53;5036387;28;20221;-73
2022/09/15 05:09:58;;;;;;;1.45;1.10;;;;;;;17.68;100.00;95267.75;5036155;28;20213;-72
2022/09/15 05:12:25;;;;;;;3.53;1.23;;;;;;;17.67;100.00;95268.78;5035423;28;20438;-73
2022/09/15 05:14:51;;;;;;;3.05;1.50;;;;;;;17.69;100.00;95264.00;5035712;28;20693;-73
2022/09/15 05:17:18;;;;;;;2.67;1.38;;;;;;;17.72;100.00;95266.19;5036014;28;20198;-72
2022/09/15 05:19:44;;;;;;;2.22;1.23;;;;;;;17.76;100.00;95268.13;5035775;28;20205;-72
2022/09/15 05:22:12;;;;;;;5.03;1.10;;;;;;;17.77;100.00;95267.06;5039578;28;20197;-73
2022/09/15 05:24:38;;;;;;;6.75;1.27;;;;;;;17.61;100.00;95261.75;5038318;28;20228;-72
2022/09/15 05:27:05;;;;;;;2.78;1.33;;;;;;;17.74;100.00;95261.41;5039934;28;20205;-73
2022/09/15 05:29:31;;;;;;;2.03;1.10;;;;;;;17.78;100.00;95262.53;5039391;28;20205;-73
2022/09/15 05:31:58;;;;;;;1.85;0.95;;;;;;;17.83;100.00;95275.94;5039105;28;20596;-72
2022/09/15 05:34:24;;;;;;;1.40;0.82;;;;;;;17.73;100.00;95271.28;5039350;28;20213;-73
2022/09/15 05:36:50;;;;;;;2.38;1.40;;;;;;;17.82;100.00;95271.69;5038701;28;20259;-73
2022/09/15 05:39:18;;;;;;;1.65;0.95;;;;;;;17.89;100.00;95269.63;5039996;28;20735;-73
2022/09/15 05:41:44;;;;;;;2.08;1.20;;;;;;;17.84;100.00;95266.91;5038283;28;20694;-73
2022/09/15 05:44:11;;;;;;;1.80;1.10;;;;;;;17.81;100.00;95268.19;5038347;28;20231;-73
2022/09/15 05:46:37;;;;;;;3.65;1.35;;;;;;;17.77;100.00;95267.06;5039999;28;20201;-73
2022/09/15 05:49:04;;;;;;;1.50;1.02;;;;;;;17.79;100.00;95270.31;5038796;28;20320;-73
2022/09/15 05:51:30;;;;;;;5.00;2.53;;;;;;;17.79;100.00;95270.31;5038215;28;20217;-72
2022/09/15 05:53:57;;;;;;;3.95;1.85;;;;;;;17.73;100.00;95271.28;5039379;28;20205;-73
2022/09/15 05:56:24;;;;;;;3.75;2.20;;;;;;;17.83;100.00;95273.28;5038628;28;20212;-72
2022/09/15 05:58:51;;;;;;;1.70;1.10;;;;;;;17.83;100.00;95276.75;5038866;28;20224;-73
2022/09/15 06:01:19;;;;;;;6.28;2.30;;;;;;;17.91;100.00;95283.53;5039009;28;20197;-73
2022/09/15 06:03:46;;;;;;;3.92;1.45;;;;;;;17.92;100.00;95285.13;5037347;28;20205;-73
2022/09/15 06:06:12;;;;;;;4.75;1.30;;;;;;;17.81;100.00;95281.53;5038656;28;20209;-72
2022/09/15 06:08:42;;;;;;;2.30;1.30;;;;;;;17.91;100.00;95283.53;5038294;28;20243;-73
2022/09/15 06:11:10;;;;;;;8.07;3.30;;;;;;;17.82;100.00;95287.69;5039121;28;20225;-74
2022/09/15 06:13:39;;;;;;;3.28;1.08;;;;;;;17.86;100.00;95280.81;5038497;28;20205;-75
2022/09/15 06:16:08;;;;;;;1.92;1.15;;;;;;;17.79;100.00;95283.63;5041373;28;20202;-75
2022/09/15 06:18:36;;;;;;;1.58;1.15;;;;;;;17.82;100.00;95275.16;5037968;28;20220;-73
2022/09/15 06:21:07;;;;;;;9.70;2.17;;;;;;;17.90;100.00;95284.59;5039552;28;20660;-74
2022/09/15 06:23:34;;;;;;;2.60;1.10;;;;;;;17.81;100.00;95272.72;5038708;28;20208;-74
2022/09/15 06:26:08;;;;;;;5.22;1.90;;;;;;;17.98;100.00;95284.97;5039971;28;20202;-74
2022/09/15 06:28:35;;;;;;;7.70;3.25;;;;;;;17.92;100.00;95279.81;5039013;28;20822;-74
2022/09/15 06:31:03;;;;;;;5.28;2.47;;;;;;;18.01;100.00;95283.66;5038385;28;20225;-73
2022/09/15 06:33:30;;;;;;;1.38;0.98;;;;;;;17.96;100.00;95291.59;5037184;28;20259;-74
2022/09/15 06:35:56;;;;;;;4.80;2.13;;;;;;;17.99;100.00;95291.13;5038594;28;21070;-74
2022/09/15 06:38:22;;;;;;;1.60;1.40;;;;;;;17.98;100.00;95294.81;5037734;28;20221;-74
2022/09/15 06:40:59;;;;;;;2.30;1.52;;;;;;;18.10;100.00;95301.69;5037832;28;20213;-74
2022/09/15 06:43:26;;;;;;;2.85;1.27;;;;;;;17.99;100.00;95301.78;5037362;28;20201;-74
2022/09/15 06:45:52;;;;;;;5.57;1.92;;;;;;;17.95;100.00;95293.47;5036762;28;20625;-74
2022/09/15 06:48:20;;;;;;;1.77;1.30;;;;;;;18.00;100.00;95290.88;5037139;28;20225;-74
2022/09/15 06:50:53;;;;;;;2.40;1.67;;;;;;;18.13;100.00;95295.84;5038222;28;20746;-74
2022/09/15 06:53:19;;;;;;;2.97;1.95;;;;;;;18.09;100.00;95307.25;5037573;28;20201;-73
2022/09/15 06:55:46;;;;;;;2.00;1.15;;;;;;;18.12;100.00;95304.91;5037652;28;20206;-74
2022/09/15 06:58:12;;;;;;;1.42;1.10;;;;;;;18.16;100.00;95308.69;5037947;28;20709;-74
2022/09/15 07:00:38;;;;;;;2.15;1.25;;;;;;;18.15;100.00;95319.59;5038150;28;20258;-74
2022/09/15 07:03:05;;;;;;;2.13;1.33;;;;;;;18.22;100.00;95315.75;5037232;28;20209;-74
2022/09/15 07:05:33;;;;;;;1.38;1.05;;;;;;;18.28;100.00;95306.75;5037925;28;20205;-74
2022/09/15 07:07:59;;;;;;;1.85;0.93;;;;;;;18.20;100.00;95307.19;5037885;28;20272;-74
2022/09/15 07:10:25;;;;;;;1.75;1.13;;;;;;;18.16;100.00;95311.34;5037451;28;20197;-74
2022/09/15 07:12:52;;;;;;;1.92;1.00;;;;;;;18.16;100.00;95308.69;5036461;28;20221;-74
2022/09/15 07:15:18;;;;;;;1.15;0.82;;;;;;;18.23;100.00;95317.34;5037364;28;20205;-75
2022/09/15 07:17:45;;;;;;;1.58;1.00;;;;;;;18.24;100.00;95315.50;5037482;28;20263;-74
2022/09/15 07:20:12;;;;;;;3.78;1.00;;;;;;;18.27;100.00;95321.16;5037636;28;20582;-74
2022/09/15 07:22:40;;;;;;;3.25;1.35;;;;;;;18.37;100.00;95327.41;5036581;28;20980;-75
2022/09/15 07:25:07;;;;;;;2.53;1.65;;;;;;;18.40;100.00;95326.13;5037137;28;20673;-74
2022/09/15 07:27:34;;;;;;;2.33;1.20;;;;;;;18.47;100.00;95324.91;5037713;28;20232;-74
2022/09/15 07:30:01;;;;;;;4.00;1.05;;;;;;;18.49;100.00;95319.31;5037474;28;20201;-77
2022/09/15 07:32:27;;;;;;;1.27;1.10;;;;;;;18.54;100.00;95322.84;5036021;28;20217;-76
2022/09/15 07:34:53;;;;;;;1.38;0.93;;;;;;;18.62;100.00;95318.94;5038154;28;20583;-76
2022/09/15 07:37:20;;;;;;;3.97;1.00;;;;;;;18.67;100.00;95322.50;5037132;28;20208;-73
2022/09/15 07:39:49;;;;;;;3.40;1.05;;;;;;;18.83;100.00;95326.94;5036447;28;20207;-73
2022/09/15 07:42:15;;;;;;;2.83;1.08;;;;;;;18.87;100.00;95333.41;5036897;28;20197;-74
2022/09/15 07:44:41;;;;;;;1.85;0.90;;;;;;;18.90;100.00;95332.88;5037495;28;20563;-74
2022/09/15 07:47:08;;;;;;;1.73;1.00;;;;;;;18.99;100.00;95342.91;5036877;28;20201;-74
2022/09/15 07:49:34;;;;;;;4.22;1.00;;;;;;;19.05;100.00;95341.91;5036612;28;20209;-75
2022/09/15 07:52:01;;;;;;;2.95;1.13;;;;;;;19.12;100.00;95347.09;5037225;28;20935;-74
2022/09/15 07:54:27;;;;;;;1.42;1.00;;;;;;;19.21;100.00;95346.38;5035898;28;20205;-75
2022/09/15 07:56:55;;;;;;;10.93;1.35;;;;;;;19.20;100.00;95350.09;5036409;28;20201;-74
2022/09/15 07:59:22;;;;;;;4.45;1.35;;;;;;;19.22;100.00;95349.84;5037097;28;20216;-74
2022/09/15 08:01:48;;;;;;;1.40;0.88;;;;;;;19.34;100.00;95350.53;5036124;28;20665;-74
2022/09/15 08:04:15;;;;;;;0.85;0.80;;;;;;;19.35;100.00;95354.81;5035775;28;20201;-74
2022/09/15 08:06:41;;;;;;;1.63;0.63;;;;;;;19.31;100.00;95357.16;5036544;28;20201;-74
2022/09/15 08:09:13;;;;;;;4.13;1.33;;;;;;;19.39;100.00;95355.91;5036398;28;21115;-74
2022/09/15 08:11:40;;;;;;;2.60;1.05;;;;;;;19.46;100.00;95359.97;5035888;28;20247;-74
2022/09/15 08:14:08;;;;;;;1.98;1.00;;;;;;;19.30;100.00;95365.44;5036303;28;20201;-74
2022/09/15 08:16:34;;;;;;;0.95;0.70;;;;;;;19.22;100.00;95363.19;5036546;28;20205;-74
2022/09/15 08:19:01;;;;;;;4.75;1.20;;;;;;;19.34;100.00;95361.22;5036509;28;20623;-74
2022/09/15 08:21:28;;;;;;;2.67;1.13;;;;;;;19.41;100.00;95356.47;5035713;28;20197;-74
2022/09/15 08:23:56;;;;;;;1.60;0.90;;;;;;;19.41;100.00;95353.78;5035795;28;20662;-74
2022/09/15 08:26:24;;;;;;;2.08;1.20;;;;;;;19.53;100.00;95355.25;5036292;28;20204;-74
2022/09/15 08:28:51;;;;;;;1.45;1.02;;;;;;;19.51;100.00;95361.91;5036357;28;20232;-74
2022/09/15 08:31:19;;;;;;;1.83;1.17;;;;;;;19.59;100.00;95365.72;5035556;28;20208;-74
2022/09/15 08:33:48;;;;;;;5.50;1.50;;;;;;;19.84;100.00;95363.28;5034230;28;20225;-74
2022/09/15 08:36:15;;;;;;;4.05;0.90;;;;;;;19.91;100.00;95363.91;5036489;28;20425;-74
2022/09/15 08:38:43;;;;;;;1.60;0.95;;;;;;;19.94;100.00;95368.75;5036340;28;20567;-74
2022/09/15 08:41:16;;;;;;;1.73;1.00;;;;;;;20.14;100.00;95379.63;5035960;28;20288;-74
2022/09/15 08:43:47;;;;;;;1.92;1.02;;;;;;;20.16;100.00;95374.81;5035461;28;20201;-74
2022/09/15 08:46:19;;;;;;;1.48;0.90;;;;;;;20.17;100.00;95371.06;5037518;28;20201;-74
2022/09/15 08:48:54;;;;;;;1.63;0.80;;;;;;;20.18;100.00;95380.72;5034778;28;20229;-74
2022/09/15 08:51:28;;;;;;;1.80;0.88;;;;;;;20.03;100.00;95377.13;5036017;28;20201;-74
2022/09/15 08:54:02;;;;;;;2.13;0.90;;;;;;;19.97;100.00;95375.44;5034963;28;20257;-74
2022/09/15 08:56:29;;;;;;;1.88;1.13;;;;;;;19.99;100.00;95384.03;5039509;28;20195;-74
2022/09/15 08:58:56;;;;;;;2.08;1.00;;;;;;;19.93;100.00;95380.50;5039486;28;20224;-74
2022/09/15 09:01:38;;;;;;;1.88;0.77;;;;;;;20.11;97.25;95380.13;5040349;28;20201;-74
2022/09/15 09:04:24;;;;;;;1.45;1.00;;;;;;;20.31;97.13;95380.28;5038657;28;20224;-74
2022/09/15 09:07:01;;;;;;;3.58;1.13;;;;;;;20.34;96.73;95382.41;5039174;28;20204;-74
2022/09/15 09:09:34;;;;;;;1.48;0.80;;;;;;;20.37;97.46;95374.69;5038900;28;20196;-74
2022/09/15 09:12:20;;;;;;;3.10;1.67;;;;;;;20.57;97.13;95371.31;5039756;28;20219;-74
2022/09/15 09:15:01;;;;;;;1.88;0.90;;;;;;;20.70;95.14;95370.91;5039433;28;20752;-72
2022/09/15 09:17:43;;;;;;;2.28;0.95;;;;;;;20.78;92.19;95362.41;5039701;28;20217;-74
2022/09/15 09:20:34;;;;;;;1.35;0.60;;;;;;;20.84;92.14;95373.66;5039197;28;20236;-73
2022/09/15 09:23:05;;;;;;;2.30;1.00;;;;;;;20.79;92.76;95374.72;5038325;28;20197;-74
2022/09/15 09:25:31;;;;;;;4.43;1.00;;;;;;;20.60;92.12;95374.31;5039638;28;20201;-73
2022/09/15 09:27:58;;;;;;;3.63;0.98;;;;;;;20.48;94.03;95367.53;5038127;28;21325;-73
2022/09/15 09:30:29;;;;;;;2.15;0.77;;;;;;;20.46;94.03;95372.34;5039203;28;20198;-74
2022/09/15 09:33:09;;;;;;;1.60;0.88;;;;;;;20.41;94.91;95370.44;5038341;28;20225;-74
2022/09/15 09:35:43;;;;;;;1.30;1.05;;;;;;;20.29;97.21;95372.50;5039280;28;20209;-74
2022/09/15 09:38:11;;;;;;;2.25;1.00;;;;;;;20.20;97.09;95375.94;5038906;28;21181;-73
2022/09/15 09:40:40;;;;;;;1.17;1.05;;;;;;;20.08;98.15;95374.47;5038907;28;20673;-73
2022/09/15 09:43:07;;;;;;;2.22;1.08;;;;;;;19.94;98.41;95374.09;5038989;28;20205;-73
2022/09/15 09:45:34;;;;;;;2.38;1.25;;;;;;;20.07;99.45;95372.88;5038831;28;20197;-73
2022/09/15 09:48:06;;;;;;;7.10;2.95;;;;;;;20.11;97.56;95371.28;5038967;28;20221;-73
2022/09/15 09:50:38;;;;;;;5.68;3.55;;;;;;;20.13;98.51;95371.84;5038123;28;20197;-74
2022/09/15 09:53:23;;;;;;;5.20;2.85;;;;;;;20.25;96.99;95365.22;5037645;28;20228;-74
2022/09/15 09:55:49;;;;;;;1.05;0.70;;;;;;;20.15;98.07;95359.84;5038525;28;20665;-75
2022/09/15 09:58:19;;;;;;;3.70;1.35;;;;;;;20.21;97.00;95364.13;5039392;28;20224;-76
2022/09/15 10:00:46;;;;;;;2.38;0.85;;;;;;;20.06;96.09;95369.41;5037874;28;20244;-74
2022/09/15 10:03:16;;;;;;;3.83;2.00;;;;;;;20.21;98.24;95364.97;5038283;28;20197;-73
2022/09/15 10:05:45;;;;;;;4.03;1.50;;;;;;;20.18;100.00;95363.88;5037994;28;20201;-73
2022/09/15 10:08:16;;;;;;;1.02;0.90;;;;;;;19.78;100.00;95363.50;5037788;28;20559;-73
2022/09/15 10:10:50;;;;;;;2.60;2.13;;;;;;;19.73;100.00;95350.91;5038240;28;20299;-74
2022/09/15 10:13:17;;;;;;;6.50;4.43;;;;;;;19.59;100.00;95360.38;5036820;28;20271;-75
2022/09/15 10:15:50;;;;;;;1.90;1.17;;;;;;;19.63;100.00;95366.03;5037546;28;20243;-74
2022/09/15 10:18:28;;;;;;;1.80;1.13;;;;;;;19.88;100.00;95359.06;5037845;28;20225;-75
2022/09/15 10:20:56;;;;;;;3.05;1.35;;;;;;;19.99;100.00;95358.09;5037212;28;20259;-74
2022/09/15 10:23:26;;;;;;;2.88;1.02;;;;;;;19.93;100.00;95359.09;5037962;28;20197;-75
2022/09/15 10:25:55;;;;;;;1.30;1.20;;;;;;;20.03;100.00;95361.88;5037993;28;20205;-75
2022/09/15 10:28:24;;;;;;;1.83;1.08;;;;;;;19.99;100.00;95360.75;5038401;28;20228;-75
2022/09/15 10:31:04;;;;;;;2.08;1.05;;;;;;;20.18;100.00;95353.16;5037537;28;20208;-75
2022/09/15 10:33:33;;;;;;;4.15;1.27;;;;;;;20.14;100.00;95352.88;5037647;28;20224;-75
2022/09/15 10:36:05;;;;;;;1.52;0.98;;;;;;;20.11;100.00;95361.41;5038554;28;20259;-75
2022/09/15 10:38:38;;;;;;;5.70;1.50;;;;;;;20.43;100.00;95354.13;5037719;28;20232;-74
2022/09/15 10:41:13;;;;;;;1.05;0.95;;;;;;;20.47;100.00;95355.22;5036715;28;20206;-74
2022/09/15 10:43:47;;;;;;;3.22;1.52;;;;;;;20.47;100.00;95352.56;5036866;28;20255;-74
2022/09/15 10:46:20;;;;;;;2.22;1.20;;;;;;;20.45;100.00;95349.31;5037367;28;20288;-74
2022/09/15 10:49:08;;;;;;;1.70;1.00;;;;;;;20.59;100.00;95350.47;5036684;28;20325;-74
2022/09/15 10:51:47;;;;;;;4.05;1.00;;;;;;;20.57;100.00;95348.06;5037658;28;20212;-74
2022/09/15 10:54:39;;;;;;;3.40;1.10;;;;;;;20.56;100.00;95345.66;5037163;28;20669;-74
2022/09/15 10:57:17;;;;;;;3.40;1.10;;;;;;;20.62;100.00;95347.25;5037250;28;20547;-74
2022/09/15 10:59:53;;;;;;;1.20;1.00;;;;;;;20.63;100.00;95348.88;5037574;28;20227;-74
2022/09/15 11:02:55;;;;;;;2.03;0.75;;;;;;;20.59;100.00;95345.13;5036475;28;20197;-75
2022/09/15 11:05:36;;;;;;;3.05;1.05;;;;;;;20.69;100.00;95345.97;5037262;28;20291;-75
2022/09/15 11:08:25;;;;;;;2.45;0.98;;;;;;;20.82;100.00;95344.72;5037914;28;20628;-75
2022/09/15 11:11:00;;;;;;;2.30;0.95;;;;;;;20.73;100.00;95338.25;5037624;28;20201;-74
2022/09/15 11:13:35;;;;;;;1.95;1.13;;;;;;;20.69;100.00;95335.25;5036958;28;20217;-75
2022/09/15 11:16:22;;;;;;;2.65;0.93;;;;;;;20.73;100.00;95346.31;5038219;28;20201;-74
2022/09/15 11:19:02;;;;;;;1.40;0.90;;;;;;;20.54;100.00;95337.84;5036464;28;20275;-75
2022/09/15 11:21:33;;;;;;;3.53;0.90;;;;;;;20.60;100.00;95342.19;5036937;28;20588;-74
2022/09/15 11:24:25;;;;;;;3.70;1.20;;;;;;;20.59;100.00;95345.13;5036621;28;20217;-75
2022/09/15 11:26:56;;;;;;;2.97;1.00;;;;;;;20.56;100.00;95340.28;5035711;28;20880;-74
2022/09/15 11:29:27;;;;;;;2.10;1.00;;;;;;;20.45;100.00;95339.41;5036885;28;20225;-75
2022/09/15 11:31:58;;;;;;;3.20;1.05;;;;;;;20.53;100.00;95340.78;5025310;28;20204;-74
2022/09/15 11:34:30;;;;;;;2.30;1.23;;;;;;;20.48;100.00;95336.22;5034237;28;20289;-74
2022/09/15 11:37:02;;;;;;;4.25;1.27;;;;;;;20.56;100.00;95334.94;5036107;28;20701;-74
2022/09/15 11:39:36;;;;;;;2.47;1.10;;;;;;;20.70;100.00;95330.72;5036094;28;20193;-75